Time;durP1;ratioP1;P1;durP2;ratioP2;P2;SDS_P1;SDS_P2;PMS_P1;PMS_P2;Temp;Humidity;BMP_temperature;BMP_pressure;BME280_temperature;BME280_humidity;BME280_pressure;Samples;Min_cycle;Max_cycle;Signal;HPM_P1;HPM_P2
2022/08/08 00:00:45;;;;;;;5.20;4.45;;;;;;;22.03;71.35;100447.50;1795359;80;20993;-82
2022/08/08 00:03:24;;;;;;;6.15;4.90;;;;;;;22.00;71.45;100449.21;1796558;78;20984;-82
2022/08/08 00:05:58;;;;;;;5.70;4.60;;;;;;;21.98;71.59;100450.75;1795729;78;21063;-81
2022/08/08 00:08:43;;;;;;;5.05;4.47;;;;;;;21.97;71.67;100454.98;1807388;78;21051;-81
2022/08/08 00:11:33;;;;;;;5.85;4.42;;;;;;;21.97;71.75;100456.33;1802301;77;21918;-81
2022/08/08 00:14:05;;;;;;;5.17;4.67;;;;;;;21.94;71.89;100447.31;1797797;78;20936;-81
2022/08/08 00:16:50;;;;;;;5.15;4.65;;;;;;;21.91;71.99;100453.92;1827851;78;21024;-81
2022/08/08 00:19:51;;;;;;;5.08;4.53;;;;;;;21.90;71.98;100458.13;1817996;77;20953;-81
2022/08/08 00:22:47;;;;;;;5.08;4.58;;;;;;;21.87;72.10;100459.86;1795963;77;20933;-81
2022/08/08 00:25:24;;;;;;;5.22;4.72;;;;;;;21.87;72.16;100462.55;1768977;78;22343;-82
2022/08/08 00:27:54;;;;;;;5.62;4.65;;;;;;;21.87;72.28;100455.31;1826688;77;20976;-81
2022/08/08 00:30:20;;;;;;;6.65;4.83;;;;;;;21.86;72.50;100449.63;1827232;77;21430;-81
2022/08/08 00:32:52;;;;;;;5.35;4.75;;;;;;;21.85;72.65;100445.79;1827429;78;21321;-81
2022/08/08 00:35:58;;;;;;;5.30;4.83;;;;;;;21.84;72.67;100449.50;1826517;78;20933;-81
2022/08/08 00:38:45;;;;;;;6.00;4.53;;;;;;;21.86;72.68;100456.86;1763570;81;21898;-81
2022/08/08 00:41:54;;;;;;;6.58;4.42;;;;;;;21.89;72.72;100456.46;1775451;78;21027;-80
2022/08/08 00:44:41;;;;;;;6.92;4.70;;;;;;;21.91;72.81;100458.47;1764704;80;20970;-82
2022/08/08 00:47:37;;;;;;;5.78;4.90;;;;;;;21.91;72.83;100453.09;1815385;78;20943;-82
2022/08/08 00:50:33;;;;;;;5.03;4.42;;;;;;;21.91;72.97;100450.41;1821063;78;21058;-82
2022/08/08 00:53:29;;;;;;;5.00;4.50;;;;;;;21.91;73.27;100449.06;1821251;78;21826;-81
2022/08/08 00:56:43;;;;;;;5.12;4.70;;;;;;;21.87;73.56;100445.08;1811568;77;21024;-81
2022/08/08 00:59:31;;;;;;;6.67;5.30;;;;;;;21.84;74.03;100438.23;1799661;79;21041;-81
2022/08/08 01:02:29;;;;;;;5.60;5.03;;;;;;;21.77;74.73;100427.09;1795857;78;21375;-81
2022/08/08 01:05:11;;;;;;;6.60;5.58;;;;;;;21.68;75.36;100428.56;1769815;81;21047;-80
2022/08/08 01:07:46;;;;;;;7.72;5.20;;;;;;;21.62;75.91;100424.49;1777417;79;21847;-82
2022/08/08 01:10:31;;;;;;;6.62;5.33;;;;;;;21.56;76.45;100420.70;1800800;79;20987;-81
2022/08/08 01:13:41;;;;;;;6.20;5.40;;;;;;;21.51;77.00;100420.95;1775420;79;20995;-80
2022/08/08 01:16:25;;;;;;;5.70;5.15;;;;;;;21.44;77.54;100422.25;1769187;79;20984;-81
2022/08/08 01:19:00;;;;;;;6.83;5.65;;;;;;;21.40;77.90;100422.29;1707323;81;21415;-80
2022/08/08 01:22:05;;;;;;;6.53;5.15;;;;;;;21.36;78.16;100419.16;1770048;78;22322;-81
2022/08/08 01:25:01;;;;;;;6.70;6.00;;;;;;;21.36;78.29;100423.70;1753583;78;21063;-81
2022/08/08 01:27:48;;;;;;;7.25;5.40;;;;;;;21.36;78.40;100428.57;1770404;79;20956;-81
2022/08/08 01:30:39;;;;;;;6.47;5.35;;;;;;;21.38;78.35;100431.06;1769760;78;21032;-80
2022/08/08 01:34:03;;;;;;;6.25;5.65;;;;;;;21.38;78.37;100431.06;1795918;78;20999;-81
2022/08/08 01:37:01;;;;;;;6.45;5.67;;;;;;;21.37;78.36;100434.77;1792791;78;22246;-80
2022/08/08 01:40:04;;;;;;;6.80;5.85;;;;;;;21.38;78.27;100438.61;1756772;78;20943;-81
2022/08/08 01:42:51;;;;;;;9.83;5.80;;;;;;;21.37;78.25;100440.98;1783556;79;20995;-81
2022/08/08 01:45:44;;;;;;;8.88;6.10;;;;;;;21.39;78.20;100443.47;1782593;80;21378;-81
2022/08/08 01:48:39;;;;;;;6.60;5.95;;;;;;;21.38;78.18;100440.46;1783813;79;20967;-80
2022/08/08 01:51:58;;;;;;;6.70;6.05;;;;;;;21.37;78.19;100446.35;1796851;79;21840;-81
2022/08/08 01:55:04;;;;;;;6.28;5.67;;;;;;;21.35;78.23;100451.60;1812270;77;20979;-81
2022/08/08 01:57:52;;;;;;;6.37;5.78;;;;;;;21.30;78.31;100450.81;1783291;79;21030;-81
2022/08/08 02:00:26;;;;;;;6.10;5.50;;;;;;;21.32;78.30;100455.98;1783472;79;20939;-82
2022/08/08 02:03:17;;;;;;;7.78;6.08;;;;;;;21.31;78.31;100452.47;1782852;79;21035;-81
2022/08/08 02:06:16;;;;;;;7.15;6.08;;;;;;;21.31;78.32;100457.84;1783340;79;21925;-82
2022/08/08 02:09:06;;;;;;;9.45;5.80;;;;;;;21.31;78.28;100458.36;1794930;79;21514;-81
2022/08/08 02:11:45;;;;;;;8.65;6.05;;;;;;;21.33;78.36;100463.89;1775381;79;20991;-81
2022/08/08 02:14:29;;;;;;;6.65;6.10;;;;;;;21.33;78.40;100463.05;1772589;79;21050;-80
2022/08/08 02:17:05;;;;;;;8.00;6.90;;;;;;;21.29;78.49;100458.55;1783539;80;20990;-81
2022/08/08 02:19:57;;;;;;;6.97;5.97;;;;;;;21.28;78.51;100463.61;1783303;78;21714;-81
2022/08/08 02:22:48;;;;;;;7.08;6.20;;;;;;;21.28;78.55;100457.41;1771305;78;21059;-81
2022/08/08 02:25:44;;;;;;;7.95;6.33;;;;;;;21.24;78.55;100462.30;1784629;78;20988;-81
2022/08/08 02:28:59;;;;;;;7.87;6.70;;;;;;;21.25;78.53;100467.16;1815365;79;20949;-82
2022/08/08 02:32:05;;;;;;;7.12;6.40;;;;;;;21.24;78.52;100476.25;1795960;79;21004;-81
2022/08/08 02:35:02;;;;;;;7.95;6.20;;;;;;;21.24;78.48;100481.63;1747125;80;21892;-81
2022/08/08 02:38:16;;;;;;;7.80;6.20;;;;;;;21.22;78.38;100481.78;1783299;79;20945;-80
2022/08/08 02:41:26;;;;;;;7.20;6.20;;;;;;;21.19;78.45;100484.85;1772664;79;21478;-81
2022/08/08 02:44:19;;;;;;;7.28;6.58;;;;;;;21.19;78.44;100488.05;1752331;82;21012;-81
2022/08/08 02:47:01;;;;;;;7.60;6.62;;;;;;;21.17;78.51;100481.53;1783336;80;21075;-81
2022/08/08 02:50:12;;;;;;;7.15;6.45;;;;;;;21.19;78.54;100488.05;1771996;79;21856;-81
2022/08/08 02:53:04;;;;;;;7.53;6.72;;;;;;;21.19;78.56;100484.02;1783247;80;20948;-81
2022/08/08 02:56:00;;;;;;;7.50;6.80;;;;;;;21.16;78.68;100481.20;1741741;81;21413;-81
2022/08/08 02:58:45;;;;;;;;;;;;;;;21.13;78.74;100484.25;1770074;79;21094;-81
2022/08/08 03:01:31;;;;;;;9.18;6.70;;;;;;;21.13;78.81;100483.77;1777939;80;20129;-80
2022/08/08 03:04:29;;;;;;;7.25;6.55;;;;;;;21.08;78.91;100491.55;1799765;78;21781;-81
2022/08/08 03:07:31;;;;;;;6.90;6.30;;;;;;;21.10;78.98;100496.20;1815702;78;21097;-81
2022/08/08 03:10:39;;;;;;;7.40;6.42;;;;;;;21.11;79.12;100497.04;1787384;79;20988;-82
2022/08/08 03:13:39;;;;;;;8.23;6.87;;;;;;;21.08;79.22;100496.91;1814595;79;21005;-82
2022/08/08 03:16:41;;;;;;;7.65;6.90;;;;;;;21.04;79.37;100495.63;1814189;78;21052;-81
2022/08/08 03:19:45;;;;;;;7.37;6.70;;;;;;;21.05;79.45;100501.84;1794416;79;21926;-81
2022/08/08 03:22:12;;;;;;;7.85;6.90;;;;;;;21.03;79.53;100507.36;1780713;80;20944;-81
2022/08/08 03:24:38;;;;;;;7.30;6.60;;;;;;;21.01;79.65;100504.55;1794679;78;20936;-83
2022/08/08 03:27:20;;;;;;;7.75;6.90;;;;;;;21.01;79.64;100509.41;1796934;78;21040;-82
2022/08/08 03:29:54;;;;;;;8.55;7.28;;;;;;;21.00;79.62;100511.78;1782901;79;20979;-82
2022/08/08 03:35:06;;;;;;;7.85;7.05;;;;;;;20.99;79.72;100511.45;1815365;77;21448;-82
2022/08/08 03:37:35;;;;;;;9.13;7.25;;;;;;;20.95;79.81;100508.00;1798156;77;21078;-81
2022/08/08 03:40:04;;;;;;;8.13;7.22;;;;;;;20.95;79.93;100510.69;1772428;79;20989;-80
2022/08/08 03:42:31;;;;;;;10.72;8.00;;;;;;;20.94;79.98;100508.52;1770915;81;21436;-81
2022/08/08 03:44:58;;;;;;;7.97;7.28;;;;;;;20.96;80.05;100513.19;1771731;79;21812;-81
2022/08/08 03:47:27;;;;;;;7.65;6.83;;;;;;;20.97;80.06;100512.16;1798057;79;20987;-80
2022/08/08 03:49:54;;;;;;;8.00;7.30;;;;;;;21.00;80.00;100516.31;1801896;77;21024;-81
2022/08/08 03:52:20;;;;;;;8.58;7.78;;;;;;;21.01;79.95;100514.78;1823164;77;20940;-81
2022/08/08 03:54:47;;;;;;;8.08;7.28;;;;;;;21.03;79.87;100514.59;1808929;77;21030;-82
2022/08/08 03:57:15;;;;;;;7.95;6.83;;;;;;;21.02;79.81;100521.81;1776959;78;21879;-81
2022/08/08 03:59:41;;;;;;;8.10;7.10;;;;;;;21.04;79.75;100529.20;1797846;77;20972;-81
2022/08/08 04:02:16;;;;;;;8.33;7.62;;;;;;;21.08;79.75;100525.63;1813579;78;20927;-81
2022/08/08 04:04:43;;;;;;;9.23;7.30;;;;;;;21.07;79.70;100522.11;1800543;77;21489;-81
2022/08/08 04:07:09;;;;;;;7.50;6.80;;;;;;;21.04;79.73;100531.89;1774523;79;21298;-81
2022/08/08 04:09:37;;;;;;;8.43;7.22;;;;;;;21.02;79.69;100529.05;1797805;79;22308;-81
2022/08/08 04:12:05;;;;;;;9.20;7.45;;;;;;;20.98;79.71;100529.94;1798047;77;20960;-80
2022/08/08 04:14:42;;;;;;;8.88;7.58;;;;;;;20.99;79.77;100538.31;1755827;79;21509;-82
2022/08/08 04:17:09;;;;;;;7.50;6.72;;;;;;;20.99;79.84;100537.48;1773607;79;21413;-82
2022/08/08 04:19:38;;;;;;;9.90;7.67;;;;;;;20.99;79.86;100545.53;1773674;81;21444;-82
2022/08/08 04:22:05;;;;;;;8.00;7.22;;;;;;;20.99;79.87;100546.37;1797992;77;21793;-81
2022/08/08 04:24:33;;;;;;;9.43;7.58;;;;;;;20.99;79.84;100543.68;1793186;79;21011;-82
2022/08/08 04:27:02;;;;;;;8.30;7.50;;;;;;;21.01;79.87;100556.41;1807752;77;21375;-81
2022/08/08 04:29:29;;;;;;;7.97;7.28;;;;;;;21.03;79.91;100554.88;1805047;78;21417;-81
2022/08/08 04:31:56;;;;;;;8.50;7.70;;;;;;;21.02;79.87;100559.41;1804775;77;21043;-81
2022/08/08 04:34:23;;;;;;;7.40;6.67;;;;;;;21.00;79.90;100556.09;1797668;79;21893;-81
2022/08/08 04:36:49;;;;;;;8.43;7.62;;;;;;;21.02;79.94;100561.27;1797693;78;20941;-81
2022/08/08 04:39:17;;;;;;;8.90;8.00;;;;;;;21.04;79.90;100563.28;1773349;81;20998;-81
2022/08/08 04:41:44;;;;;;;8.75;7.53;;;;;;;21.08;79.84;100566.74;1835200;76;20998;-82
2022/08/08 04:44:10;;;;;;;8.98;7.65;;;;;;;21.09;79.75;100571.09;1849580;77;20994;-80
2022/08/08 04:46:37;;;;;;;8.75;7.92;;;;;;;21.13;79.77;100572.41;1820836;77;21875;-81
2022/08/08 04:49:04;;;;;;;8.38;7.50;;;;;;;21.17;79.67;100572.02;1814817;76;21395;-81
2022/08/08 04:51:30;;;;;;;9.43;7.10;;;;;;;21.17;79.59;100579.57;1843158;77;21352;-80
2022/08/08 04:53:57;;;;;;;8.10;7.30;;;;;;;21.18;79.54;100585.77;1841008;77;21495;-81
2022/08/08 04:56:23;;;;;;;8.48;7.58;;;;;;;21.20;79.47;100581.05;1819195;76;21084;-81
2022/08/08 04:58:49;;;;;;;8.10;7.30;;;;;;;21.20;79.52;100584.56;1813181;77;21910;-81
2022/08/08 05:01:16;;;;;;;8.13;7.33;;;;;;;21.21;79.61;100586.23;1829501;77;20978;-81
2022/08/08 05:03:45;;;;;;;8.25;7.45;;;;;;;21.26;79.63;100587.03;1783585;80;21040;-81
2022/08/08 05:06:11;;;;;;;8.48;7.70;;;;;;;21.28;79.54;100579.64;1783589;79;20951;-81
2022/08/08 05:08:39;;;;;;;8.90;7.47;;;;;;;21.27;79.44;100586.87;1783159;79;21098;-82
2022/08/08 05:11:06;;;;;;;8.78;7.87;;;;;;;21.25;79.37;100588.05;1783557;79;22003;-82
2022/08/08 05:13:33;;;;;;;8.50;7.70;;;;;;;21.24;79.39;100586.39;1769645;81;21007;-82
2022/08/08 05:16:00;;;;;;;8.83;7.92;;;;;;;21.22;79.52;100586.55;1763821;81;20972;-81
2022/08/08 05:18:26;;;;;;;8.70;7.90;;;;;;;21.16;79.56;100588.66;1785765;79;21002;-82
2022/08/08 05:20:53;;;;;;;10.10;8.15;;;;;;;21.10;79.73;100584.84;1786106;79;21552;-82
2022/08/08 05:23:19;;;;;;;9.63;8.18;;;;;;;21.08;79.99;100584.71;1786022;78;21920;-81
2022/08/08 05:25:48;;;;;;;9.48;8.45;;;;;;;21.02;80.18;100578.21;1783696;78;20981;-80
2022/08/08 05:28:15;;;;;;;10.30;8.73;;;;;;;20.95;80.50;100582.67;1804418;78;20981;-80
2022/08/08 05:30:42;;;;;;;9.48;8.58;;;;;;;20.93;80.82;100593.25;1802506;78;21044;-80
2022/08/08 05:33:09;;;;;;;9.63;8.73;;;;;;;20.94;81.15;100589.06;1811070;77;20963;-80
2022/08/08 05:35:36;;;;;;;9.70;8.65;;;;;;;20.94;81.27;100589.55;1786034;79;21930;-80
2022/08/08 05:38:04;;;;;;;9.58;8.63;;;;;;;20.93;81.52;100587.38;1786216;79;21372;-82
2022/08/08 05:40:36;;;;;;;9.33;8.53;;;;;;;20.95;81.77;100589.39;1775804;79;21105;-81
2022/08/08 05:43:07;;;;;;;9.88;8.98;;;;;;;20.94;81.93;100581.02;1783603;79;20992;-80
2022/08/08 05:45:35;;;;;;;13.58;9.10;;;;;;;20.92;82.08;100581.68;1783311;79;21030;-79
2022/08/08 05:48:03;;;;;;;10.58;9.43;;;;;;;20.93;82.24;100586.03;1783984;79;21876;-80
2022/08/08 05:50:31;;;;;;;9.18;8.35;;;;;;;20.94;82.35;100585.52;1815130;77;20933;-80
2022/08/08 05:52:58;;;;;;;10.05;9.15;;;;;;;20.93;82.46;100586.54;1803896;77;21173;-80
2022/08/08 05:55:25;;;;;;;9.60;8.70;;;;;;;20.94;82.47;100582.83;1784391;79;21489;-82
2022/08/08 05:57:52;;;;;;;10.63;9.28;;;;;;;20.91;82.54;100581.87;1814357;78;20920;-81
2022/08/08 06:00:19;;;;;;;10.38;9.23;;;;;;;20.90;82.68;100585.58;1815287;79;21894;-85
2022/08/08 06:05:47;;;;;;;9.85;8.85;;;;;;;20.93;83.00;100588.72;1744722;81;21000;-81
2022/08/08 06:08:15;;;;;;;9.98;8.95;;;;;;;20.93;83.07;100590.05;1805969;77;20994;-81
2022/08/08 06:10:41;;;;;;;10.98;9.43;;;;;;;20.92;83.18;100589.73;1787018;78;21052;-80
2022/08/08 06:13:10;;;;;;;10.43;9.33;;;;;;;20.96;83.35;100592.39;1785724;79;21909;-80
2022/08/08 06:15:37;;;;;;;9.98;8.98;;;;;;;20.99;83.49;100589.33;1779195;79;20989;-80
2022/08/08 06:18:04;;;;;;;10.40;9.35;;;;;;;21.01;83.53;100591.31;1799791;79;20972;-81
2022/08/08 06:20:31;;;;;;;13.43;9.53;;;;;;;20.99;83.45;100586.64;1772673;78;20964;-80
2022/08/08 06:22:58;;;;;;;10.35;9.35;;;;;;;20.99;83.50;100589.33;1781697;79;20996;-81
2022/08/08 06:25:27;;;;;;;10.45;9.35;;;;;;;21.00;83.63;100593.68;1773422;79;22462;-81
2022/08/08 06:27:55;;;;;;;10.50;9.40;;;;;;;21.01;83.72;100587.80;1769805;79;21482;-85
2022/08/08 06:30:22;;;;;;;10.40;9.40;;;;;;;21.01;83.82;100589.14;1769809;81;20949;-81
2022/08/08 06:32:57;;;;;;;11.30;9.90;;;;;;;21.02;83.93;100592.98;1769748;78;20956;-84
2022/08/08 06:35:25;;;;;;;11.05;9.83;;;;;;;21.04;84.05;100587.45;1768259;79;21009;-81
2022/08/08 06:37:59;;;;;;;14.35;12.88;;;;;;;21.07;84.22;100593.79;1765993;81;21848;-81
2022/08/08 06:40:30;;;;;;;11.28;10.28;;;;;;;21.09;84.32;100587.20;1777056;78;20991;-80
2022/08/08 06:43:02;;;;;;;11.75;10.55;;;;;;;21.17;84.39;100590.83;1796729;79;21028;-82
2022/08/08 06:45:32;;;;;;;19.98;18.07;;;;;;;21.20;84.28;100591.28;1784206;80;21402;-82
2022/08/08 06:48:00;;;;;;;11.80;10.25;;;;;;;21.21;84.24;100587.57;1760269;81;20992;-80
2022/08/08 06:50:27;;;;;;;11.10;10.10;;;;;;;21.27;84.37;100593.59;1765313;80;22555;-81
2022/08/08 06:52:53;;;;;;;13.40;10.18;;;;;;;21.32;84.33;100595.70;1760017;80;21494;-80
2022/08/08 06:55:24;;;;;;;10.13;9.23;;;;;;;21.37;84.34;100597.33;1762565;80;20929;-81
2022/08/08 06:57:51;;;;;;;10.70;9.63;;;;;;;21.41;84.34;100602.13;1767545;80;21004;-80
2022/08/08 07:00:17;;;;;;;10.68;9.58;;;;;;;21.47;84.22;100599.73;1760802;81;20992;-80
2022/08/08 07:02:53;;;;;;;11.20;10.08;;;;;;;21.52;84.25;100599.50;1760439;80;21749;-80
2022/08/08 07:05:24;;;;;;;10.72;9.63;;;;;;;21.56;84.04;100596.75;1760348;81;20896;-79
2022/08/08 07:07:57;;;;;;;10.30;9.30;;;;;;;21.57;83.83;100594.39;1760595;80;20948;-81
2022/08/08 07:10:26;;;;;;;11.30;9.70;;;;;;;21.58;83.68;100595.22;1760431;80;20996;-80
2022/08/08 07:13:07;;;;;;;12.13;9.68;;;;;;;21.59;83.72;100596.88;1760096;80;21004;-80
2022/08/08 07:15:46;;;;;;;10.35;9.33;;;;;;;21.61;83.72;100601.55;1734549;80;22114;-79
2022/08/08 07:18:27;;;;;;;10.85;9.40;;;;;;;21.62;83.68;100601.39;1785092;80;21067;-80
2022/08/08 07:20:59;;;;;;;9.93;8.93;;;;;;;21.63;83.73;100593.64;1814314;78;21514;-80
2022/08/08 07:23:35;;;;;;;10.70;9.60;;;;;;;21.64;83.57;100602.03;1741412;78;21528;-80
2022/08/08 07:26:02;;;;;;;10.72;9.55;;;;;;;21.66;83.62;100601.84;1800509;78;20958;-81
2022/08/08 07:28:29;;;;;;;10.70;9.70;;;;;;;21.65;83.57;100603.69;1795236;79;22257;-81
2022/08/08 07:30:57;;;;;;;30.10;27.05;;;;;;;21.69;83.74;100604.97;1804903;77;20979;-81
2022/08/08 07:33:24;;;;;;;54.63;49.10;;;;;;;21.74;83.77;100606.27;1795250;78;21018;-80
2022/08/08 07:35:51;;;;;;;12.13;11.03;;;;;;;21.78;83.80;100607.55;1802095;78;21088;-78
2022/08/08 07:38:19;;;;;;;10.72;9.63;;;;;;;21.83;83.76;100610.01;1816920;78;21058;-86
2022/08/08 07:40:50;;;;;;;10.23;9.13;;;;;;;21.83;83.46;100603.80;1812224;78;21552;-79
2022/08/08 07:43:18;;;;;;;10.05;9.10;;;;;;;21.83;83.35;100610.01;1803210;78;21354;-77
2022/08/08 07:45:47;;;;;;;9.80;8.90;;;;;;;21.85;83.25;100611.16;1778285;78;20997;-80
2022/08/08 07:48:14;;;;;;;10.43;9.43;;;;;;;21.87;83.22;100613.14;1811233;79;21075;-85
2022/08/08 07:50:42;;;;;;;10.45;9.45;;;;;;;21.92;83.18;100609.39;1797313;79;21015;-77
2022/08/08 07:53:18;;;;;;;10.08;9.00;;;;;;;21.92;82.91;100614.77;1792154;79;22194;-75
2022/08/08 07:55:47;;;;;;;9.85;8.95;;;;;;;21.95;82.91;100614.38;1800555;77;21002;-76
2022/08/08 07:58:33;;;;;;;10.55;8.78;;;;;;;21.96;82.78;100611.49;1781492;79;21030;-76
2022/08/08 08:01:04;;;;;;;9.65;8.35;;;;;;;21.98;82.61;100609.95;1795557;78;21296;-77
2022/08/08 08:03:36;;;;;;;11.90;8.88;;;;;;;21.98;82.21;100619.36;1816514;78;21354;-74
2022/08/08 08:06:05;;;;;;;9.95;8.93;;;;;;;21.98;82.10;100622.05;1776664;80;21885;-81
2022/08/08 08:08:56;;;;;;;117.97;106.22;;;;;;;22.02;82.00;100631.94;1758202;80;20923;-78
2022/08/08 08:11:26;;;;;;;27.48;24.72;;;;;;;22.05;81.90;100639.11;1799263;78;21141;-79
2022/08/08 08:13:59;;;;;;;13.00;11.63;;;;;;;22.10;81.66;100635.38;1794610;78;20951;-77
2022/08/08 08:16:28;;;;;;;10.43;9.30;;;;;;;22.11;81.44;100633.01;1795800;78;20994;-78
2022/08/08 08:18:59;;;;;;;9.30;8.40;;;;;;;22.15;81.32;100638.31;1794860;79;22472;-78
2022/08/08 08:21:31;;;;;;;9.68;8.78;;;;;;;22.18;81.27;100638.44;1800452;78;20999;-77
2022/08/08 08:23:57;;;;;;;9.90;9.00;;;;;;;22.24;81.27;100635.83;1791235;80;20994;-78
2022/08/08 08:26:24;;;;;;;9.73;8.83;;;;;;;22.29;81.23;100636.58;1765966;80;21033;-78
2022/08/08 08:28:51;;;;;;;9.70;8.80;;;;;;;22.35;81.30;100636.34;1812025;78;20924;-78
2022/08/08 08:31:17;;;;;;;10.03;9.13;;;;;;;22.43;81.36;100637.05;1788231;79;21779;-78
2022/08/08 08:33:44;;;;;;;10.05;9.00;;;;;;;22.51;81.28;100635.58;1827364;77;20995;-78
2022/08/08 08:36:11;;;;;;;10.88;9.10;;;;;;;22.59;81.33;100633.27;1821083;77;21002;-78
2022/08/08 08:38:39;;;;;;;10.10;9.05;;;;;;;22.65;81.01;100643.77;1774166;80;21057;-78
2022/08/08 08:41:10;;;;;;;9.88;9.05;;;;;;;22.70;80.86;100638.64;1787828;79;21460;-77
2022/08/08 08:43:36;;;;;;;10.13;9.10;;;;;;;22.75;80.70;100634.31;1816904;77;21810;-78
2022/08/08 08:46:03;;;;;;;10.55;9.30;;;;;;;22.83;80.57;100632.84;1821384;77;20924;-79
2022/08/08 08:48:31;;;;;;;56.55;51.35;;;;;;;22.93;80.51;100639.26;1791781;78;20998;-81
2022/08/08 08:50:58;;;;;;;34.65;31.37;;;;;;;23.01;80.28;100640.98;1769265;79;21472;-79
2022/08/08 08:53:25;;;;;;;12.58;11.20;;;;;;;23.10;80.06;100642.49;1797130;78;20994;-79
2022/08/08 08:55:56;;;;;;;10.98;9.90;;;;;;;23.19;79.71;100640.48;1789734;80;21864;-79
2022/08/08 08:58:38;;;;;;;10.20;9.30;;;;;;;23.26;79.35;100642.68;1768527;79;21036;-80
2022/08/08 09:01:04;;;;;;;9.98;8.95;;;;;;;23.25;78.69;100639.67;1788631;80;20991;-79
2022/08/08 09:03:32;;;;;;;11.10;9.03;;;;;;;23.23;78.61;100641.22;1781220;78;20962;-79
2022/08/08 09:06:00;;;;;;;11.45;9.05;;;;;;;23.28;78.45;100646.87;1789787;78;20939;-77
2022/08/08 09:08:27;;;;;;;9.13;8.33;;;;;;;23.33;78.39;100648.95;1767878;79;22311;-73
2022/08/08 09:10:53;;;;;;;11.85;9.05;;;;;;;23.42;78.44;100647.25;1765302;80;21066;-80
2022/08/08 09:13:20;;;;;;;9.65;8.75;;;;;;;23.50;77.95;100646.77;1769378;79;21029;-80
2022/08/08 09:15:48;;;;;;;9.20;8.33;;;;;;;23.54;77.75;100646.68;1791748;78;21019;-79
2022/08/08 09:18:17;;;;;;;11.68;8.28;;;;;;;23.60;77.59;100651.31;1748496;81;21021;-80
2022/08/08 09:20:45;;;;;;;9.03;8.13;;;;;;;23.63;76.92;100645.51;1822273;77;21727;-79
2022/08/08 09:23:15;;;;;;;9.65;7.90;;;;;;;23.68;76.96;100643.89;1770265;79;20941;-79
2022/08/08 09:25:53;;;;;;;10.65;7.92;;;;;;;23.74;76.68;100643.61;1798769;77;21438;-80
2022/08/08 09:28:20;;;;;;;8.85;8.05;;;;;;;23.86;76.88;100642.52;1814164;77;21417;-80
2022/08/08 09:30:47;;;;;;;8.85;7.90;;;;;;;24.00;76.45;100636.11;1794142;77;21043;-79
2022/08/08 09:33:15;;;;;;;8.90;7.47;;;;;;;24.09;75.87;100642.16;1765717;80;21845;-78
2022/08/08 09:35:47;;;;;;;8.88;7.60;;;;;;;24.16;75.64;100642.50;1768390;79;21379;-79
2022/08/08 09:38:18;;;;;;;8.20;7.40;;;;;;;24.31;75.24;100642.34;1790178;78;21086;-80
2022/08/08 09:40:45;;;;;;;8.05;6.97;;;;;;;24.38;74.65;100632.91;1767449;81;21507;-79
2022/08/08 09:43:29;;;;;;;8.25;7.45;;;;;;;24.44;74.36;100635.62;1793934;77;21069;-80
2022/08/08 09:46:02;;;;;;;8.25;7.15;;;;;;;24.63;73.53;100639.91;1816321;79;21928;-79
2022/08/08 09:48:31;;;;;;;8.03;7.15;;;;;;;24.63;73.53;100639.91;1844260;76;21104;-80
2022/08/08 09:50:58;;;;;;;7.85;7.00;;;;;;;24.74;72.93;100641.98;1816576;79;20975;-79
2022/08/08 09:53:35;;;;;;;7.45;6.75;;;;;;;24.79;72.07;100644.87;1816843;77;21073;-78
2022/08/08 09:56:03;;;;;;;7.87;7.08;;;;;;;24.85;71.46;100635.94;1759984;80;21375;-79
2022/08/08 09:58:38;;;;;;;8.25;7.55;;;;;;;24.84;70.63;100642.39;1733727;81;21963;-79
2022/08/08 10:01:08;;;;;;;7.42;6.72;;;;;;;24.86;70.57;100636.77;1768367;80;20991;-79
2022/08/08 10:03:36;;;;;;;9.35;6.95;;;;;;;24.90;70.28;100642.05;1778380;80;21411;-79
2022/08/08 10:06:16;;;;;;;7.75;6.83;;;;;;;24.92;69.71;100639.48;1761683;80;20963;-79
2022/08/08 10:08:45;;;;;;;7.80;7.00;;;;;;;24.96;69.50;100640.70;1708995;81;21051;-79
2022/08/08 10:11:22;;;;;;;7.67;6.87;;;;;;;25.01;68.82;100639.58;1761806;81;22468;-79
2022/08/08 10:13:54;;;;;;;7.58;6.87;;;;;;;25.04;69.05;100641.88;1791768;78;21016;-78
2022/08/08 10:16:22;;;;;;;8.00;6.85;;;;;;;25.25;69.07;100634.56;1793080;78;20948;-80
2022/08/08 10:18:49;;;;;;;11.00;6.78;;;;;;;25.41;67.70;100628.70;1789262;79;20961;-79
2022/08/08 10:21:18;;;;;;;8.08;6.78;;;;;;;25.48;67.21;100628.17;1776154;80;21052;-79
2022/08/08 10:23:49;;;;;;;7.83;6.78;;;;;;;25.58;67.43;100623.14;1758464;81;21996;-79
2022/08/08 10:26:27;;;;;;;7.53;6.80;;;;;;;25.78;67.15;100622.25;1827579;77;20982;-79
2022/08/08 10:28:58;;;;;;;7.30;6.70;;;;;;;25.96;66.55;100619.14;1816247;79;21475;-79
2022/08/08 10:34:18;;;;;;;7.03;6.33;;;;;;;26.39;65.29;100624.42;1816325;78;21001;-79
2022/08/08 10:36:45;;;;;;;7.22;6.60;;;;;;;26.49;64.49;100620.17;1816913;77;21904;-79
2022/08/08 10:39:25;;;;;;;7.35;6.72;;;;;;;26.58;63.56;100620.73;1789889;79;20953;-78
2022/08/08 10:42:03;;;;;;;8.73;6.47;;;;;;;26.67;64.05;100624.82;1773134;76;20946;-80
2022/08/08 10:44:41;;;;;;;7.97;6.55;;;;;;;26.85;62.92;100620.51;1849238;76;20946;-79
2022/08/08 10:47:17;;;;;;;7.08;5.97;;;;;;;27.02;63.19;100625.63;1844319;77;21550;-79
2022/08/08 10:49:58;;;;;;;7.35;6.62;;;;;;;27.21;62.02;100618.39;1829423;76;21827;-79
2022/08/08 10:52:37;;;;;;;6.75;6.05;;;;;;;27.35;62.19;100619.39;1830223;78;21414;-79
2022/08/08 10:55:16;;;;;;;6.85;6.12;;;;;;;27.65;61.84;100608.62;1780563;79;21071;-78
2022/08/08 10:57:48;;;;;;;6.97;6.10;;;;;;;27.93;60.55;100604.50;1804537;79;20992;-79
2022/08/08 11:00:24;;;;;;;6.67;5.97;;;;;;;27.99;59.09;100616.30;1800355;79;21466;-79
2022/08/08 11:02:50;;;;;;;8.60;6.15;;;;;;;27.89;59.25;100613.64;1777589;79;22482;-79
2022/08/08 11:05:17;;;;;;;6.53;5.65;;;;;;;27.91;58.93;100608.80;1804193;79;21471;-79
2022/08/08 11:07:56;;;;;;;6.60;6.00;;;;;;;27.90;58.82;100609.86;1797850;79;20968;-79
2022/08/08 11:10:23;;;;;;;6.37;5.87;;;;;;;27.90;59.46;100603.08;1772908;79;20987;-80
2022/08/08 11:12:54;;;;;;;6.72;5.90;;;;;;;27.98;59.63;100599.19;1773643;79;20944;-80
2022/08/08 11:15:26;;;;;;;7.95;6.33;;;;;;;28.12;58.60;100597.95;1789083;79;22568;-80
2022/08/08 11:17:53;;;;;;;6.03;5.50;;;;;;;28.28;58.03;100595.14;1788631;79;20953;-80
2022/08/08 11:20:26;;;;;;;6.72;6.00;;;;;;;28.34;56.19;100602.34;1772733;80;20964;-80
2022/08/08 11:22:57;;;;;;;5.70;5.20;;;;;;;28.36;56.93;100596.14;1788952;79;20975;-78
2022/08/08 11:25:29;;;;;;;6.05;5.45;;;;;;;28.36;56.51;100600.21;1783621;78;21477;-82
2022/08/08 11:27:57;;;;;;;5.97;5.40;;;;;;;28.38;56.81;100598.65;1803788;78;21809;-79
2022/08/08 11:30:29;;;;;;;6.67;5.40;;;;;;;28.49;57.40;100600.55;1745296;81;21117;-79
2022/08/08 11:32:58;;;;;;;7.12;5.83;;;;;;;28.75;57.22;100604.69;1745270;81;20987;-79
2022/08/08 11:35:25;;;;;;;6.30;5.35;;;;;;;28.97;55.41;100604.45;1762906;79;21005;-79
2022/08/08 11:37:51;;;;;;;6.40;5.80;;;;;;;28.88;55.56;100596.32;1769183;81;20950;-78
2022/08/08 11:40:18;;;;;;;6.85;5.80;;;;;;;28.88;55.56;100596.32;1772178;79;22022;-85
2022/08/08 11:42:44;;;;;;;6.58;5.83;;;;;;;28.92;55.89;100596.16;1772391;81;21505;-80
2022/08/08 11:45:12;;;;;;;6.72;5.30;;;;;;;29.06;56.88;100601.66;1789148;79;21015;-79
2022/08/08 11:47:39;;;;;;;8.18;5.58;;;;;;;29.26;55.16;100593.13;1738809;82;21003;-79
2022/08/08 11:50:12;;;;;;;6.42;5.45;;;;;;;29.46;55.29;100589.17;1783315;79;20979;-79
2022/08/08 11:52:39;;;;;;;6.67;5.22;;;;;;;29.71;55.19;100595.67;1783301;80;22891;-78
2022/08/08 11:55:21;;;;;;;7.55;5.00;;;;;;;29.89;54.17;100595.48;1783579;79;20999;-80
2022/08/08 11:57:48;;;;;;;7.47;4.83;;;;;;;29.99;53.62;100594.30;1783921;79;20964;-79
2022/08/08 12:00:17;;;;;;;5.25;4.75;;;;;;;30.12;53.52;100580.97;1744433;81;21003;-79
2022/08/08 12:02:55;;;;;;;9.33;5.00;;;;;;;30.30;53.77;100592.15;1773849;79;21091;-79
2022/08/08 12:05:35;;;;;;;7.05;5.10;;;;;;;30.51;53.37;100592.80;1772405;79;21945;-79
2022/08/08 12:08:02;;;;;;;6.78;4.90;;;;;;;30.64;50.98;100588.91;1772865;81;20979;-79